createdAt,value
2018-05-10T00:01:25.517Z,12.00
2018-05-10T00:03:52.612Z,12.20
2018-05-10T00:06:18.946Z,12.20
2018-05-10T00:08:45.269Z,12.30
2018-05-10T00:11:11.618Z,12.30
2018-05-10T00:13:38.081Z,12.30
2018-05-10T00:16:04.413Z,12.30
2018-05-10T00:18:30.703Z,12.20
2018-05-10T00:20:57.040Z,12.30
2018-05-10T00:23:24.070Z,12.40
2018-05-10T00:25:50.546Z,12.40
2018-05-10T00:28:16.887Z,12.40
2018-05-10T00:30:43.201Z,12.30
2018-05-10T00:33:09.584Z,12.40
2018-05-10T00:35:35.861Z,12.20
2018-05-10T00:38:02.155Z,12.20
2018-05-10T00:40:28.481Z,12.10
2018-05-10T00:42:54.746Z,12.10
2018-05-10T00:45:21.048Z,12.00
2018-05-10T00:47:47.410Z,12.00
2018-05-10T00:50:13.759Z,11.90
2018-05-10T00:52:40.133Z,11.70
2018-05-10T00:55:06.487Z,11.60
2018-05-10T00:57:32.761Z,11.60
2018-05-10T00:59:59.122Z,11.60
2018-05-10T01:02:25.414Z,11.60
2018-05-10T01:04:51.737Z,11.50
2018-05-10T01:07:19.201Z,11.40
2018-05-10T01:09:45.475Z,11.20
2018-05-10T01:12:11.811Z,11.20
2018-05-10T01:14:38.130Z,11.20
2018-05-10T01:17:04.401Z,11.30
2018-05-10T01:19:30.793Z,11.40
2018-05-10T01:21:57.099Z,11.30
2018-05-10T01:24:24.197Z,11.30
2018-05-10T01:26:50.489Z,11.30
2018-05-10T01:29:16.765Z,11.40
2018-05-10T01:31:43.497Z,11.60
2018-05-10T01:34:10.547Z,11.70
2018-05-10T01:36:36.984Z,11.60
2018-05-10T01:39:03.293Z,11.70
2018-05-10T01:41:29.663Z,11.60
2018-05-10T01:43:55.989Z,11.60
2018-05-10T01:46:22.324Z,11.50
2018-05-10T01:48:48.644Z,11.50
2018-05-10T01:51:14.963Z,11.40
2018-05-10T01:53:42.027Z,11.40
2018-05-10T01:56:08.339Z,11.30
2018-05-10T01:58:36.333Z,11.40
2018-05-10T02:01:02.641Z,11.50
2018-05-10T02:03:28.947Z,11.30
2018-05-10T02:05:55.994Z,10.90
2018-05-10T02:08:23.074Z,10.80
2018-05-10T02:10:49.412Z,10.80
2018-05-10T02:13:15.809Z,10.70
2018-05-10T02:15:42.132Z,10.60
2018-05-10T02:18:08.463Z,10.60
2018-05-10T02:20:35.297Z,10.70
2018-05-10T02:23:01.582Z,10.70
2018-05-10T02:25:27.880Z,10.60
2018-05-10T02:27:54.154Z,10.60
2018-05-10T02:30:20.516Z,10.60
2018-05-10T02:32:46.823Z,10.50
2018-05-10T02:35:13.692Z,10.50
2018-05-10T02:37:39.989Z,10.50
2018-05-10T02:40:06.324Z,10.60
2018-05-10T02:42:32.593Z,10.60
2018-05-10T02:44:59.838Z,10.70
2018-05-10T02:47:26.098Z,10.70
2018-05-10T02:49:53.375Z,10.60
2018-05-10T02:52:19.721Z,10.50
2018-05-10T02:54:46.035Z,10.50
2018-05-10T02:57:13.145Z,10.50
2018-05-10T02:59:39.478Z,10.50
2018-05-10T03:02:05.894Z,10.50
2018-05-10T03:04:33.082Z,10.40
2018-05-10T03:06:59.401Z,10.40
2018-05-10T03:09:26.401Z,10.30
2018-05-10T03:11:52.714Z,10.30
2018-05-10T03:14:19.028Z,10.30
2018-05-10T03:16:46.039Z,10.30
2018-05-10T03:19:12.314Z,10.30
2018-05-10T03:21:38.618Z,10.20
2018-05-10T03:24:04.865Z,10.20
2018-05-10T03:26:31.130Z,10.20
2018-05-10T03:28:57.391Z,10.30
2018-05-10T03:31:23.748Z,10.30
2018-05-10T03:33:50.799Z,10.20
2018-05-10T03:36:17.088Z,10.20
2018-05-10T03:38:43.831Z,10.20
2018-05-10T03:41:10.079Z,10.10
2018-05-10T03:43:36.471Z,10.20
2018-05-10T03:46:02.751Z,10.20
2018-05-10T03:48:29.094Z,10.20
2018-05-10T03:50:55.359Z,10.20
2018-05-10T03:53:21.617Z,10.20
2018-05-10T03:55:47.912Z,10.20
2018-05-10T03:58:14.221Z,10.20
2018-05-10T04:00:40.532Z,10.30
2018-05-10T04:16:55.952Z,10.20
2018-05-10T04:19:22.878Z,10.20
2018-05-10T04:21:49.118Z,10.20
2018-05-10T04:24:15.340Z,10.30
2018-05-10T04:26:41.540Z,10.40
2018-05-10T04:29:07.756Z,10.40
2018-05-10T04:31:33.978Z,10.50
2018-05-10T04:34:00.179Z,10.60
2018-05-10T04:36:26.439Z,10.60
2018-05-10T04:38:52.726Z,10.70
2018-05-10T04:41:18.989Z,11.00
2018-05-10T04:43:45.182Z,11.20
2018-05-10T04:46:11.373Z,11.30
2018-05-10T04:48:37.559Z,11.40
2018-05-10T04:51:03.790Z,11.20
2018-05-10T04:53:29.976Z,11.10
2018-05-10T04:55:56.903Z,11.00
2018-05-10T04:58:23.082Z,10.90
2018-05-10T05:00:49.949Z,11.10
2018-05-10T05:03:16.193Z,11.10
2018-05-10T05:05:42.308Z,11.20
2018-05-10T05:08:08.497Z,11.20
2018-05-10T05:10:34.682Z,11.20
2018-05-10T05:13:01.655Z,11.70
2018-05-10T05:15:27.809Z,11.70
2018-05-10T05:17:54.011Z,11.90
2018-05-10T05:20:20.153Z,12.10
2018-05-10T05:22:46.354Z,12.30
2018-05-10T05:25:12.503Z,12.40
2018-05-10T05:27:38.730Z,12.50
2018-05-10T05:30:04.939Z,12.60
2018-05-10T05:32:31.069Z,12.50
2018-05-10T05:34:58.010Z,12.60
2018-05-10T05:37:24.190Z,12.60
2018-05-10T05:39:50.355Z,12.70
2018-05-10T05:42:16.554Z,12.70
2018-05-10T05:44:42.802Z,12.70
2018-05-10T05:47:08.937Z,12.70
2018-05-10T05:49:35.317Z,12.70
2018-05-10T05:52:01.480Z,12.80
2018-05-10T05:54:27.673Z,12.90
2018-05-10T05:56:53.857Z,13.00
2018-05-10T05:59:20.029Z,13.20
2018-05-10T06:01:46.244Z,13.40
2018-05-10T06:04:12.441Z,13.60
2018-05-10T06:06:39.320Z,14.00
2018-05-10T06:09:05.488Z,14.00
2018-05-10T06:11:31.669Z,14.40
2018-05-10T06:13:57.898Z,14.80
2018-05-10T06:16:24.100Z,15.10
2018-05-10T06:18:50.307Z,15.30
2018-05-10T06:21:16.469Z,15.40
2018-05-10T06:23:42.757Z,15.50
2018-05-10T06:26:08.938Z,15.80
2018-05-10T06:28:35.158Z,16.90
2018-05-10T06:31:01.305Z,18.00
2018-05-10T06:33:27.445Z,19.20
2018-05-10T06:35:53.676Z,20.40
2018-05-10T06:38:19.843Z,21.30
2018-05-10T06:40:46.012Z,22.10
2018-05-10T06:43:12.988Z,22.90
2018-05-10T06:45:39.290Z,22.90
2018-05-10T06:48:05.453Z,23.00
2018-05-10T06:50:32.397Z,23.30
2018-05-10T06:52:58.607Z,23.20
2018-05-10T06:55:24.876Z,23.00
2018-05-10T06:57:51.029Z,22.70
2018-05-10T07:00:17.231Z,22.70
2018-05-10T07:02:43.464Z,22.80
2018-05-10T07:05:09.600Z,22.70
2018-05-10T07:07:35.774Z,23.10
2018-05-10T07:10:02.042Z,23.10
2018-05-10T07:12:28.170Z,23.10
2018-05-10T07:14:54.348Z,23.10
2018-05-10T07:17:20.582Z,23.00
2018-05-10T07:19:46.803Z,22.80
2018-05-10T07:22:13.733Z,23.30
2018-05-10T07:24:40.017Z,23.30
2018-05-10T07:27:06.236Z,23.50
2018-05-10T07:29:33.143Z,24.30
2018-05-10T07:31:59.321Z,24.20
2018-05-10T07:34:25.589Z,24.20
2018-05-10T07:36:52.500Z,23.90
2018-05-10T07:39:18.675Z,23.90
2018-05-10T07:41:45.640Z,23.30
2018-05-10T07:44:11.977Z,23.30
2018-05-10T07:46:38.913Z,22.70
2018-05-10T07:49:05.124Z,22.60
2018-05-10T07:51:31.356Z,22.50
2018-05-10T07:53:57.513Z,22.50
2018-05-10T07:56:23.703Z,22.40
2018-05-10T07:58:49.897Z,22.40
2018-05-10T08:01:16.155Z,22.40
2018-05-10T08:03:42.329Z,22.50
2018-05-10T08:06:08.556Z,22.70
2018-05-10T08:08:35.494Z,23.10
2018-05-10T08:11:01.639Z,23.00
2018-05-10T08:13:27.857Z,23.30
2018-05-10T08:15:54.029Z,23.50
2018-05-10T08:18:20.230Z,23.70
2018-05-10T08:20:46.458Z,24.00
2018-05-10T08:23:12.674Z,24.30
2018-05-10T08:25:38.901Z,24.40
2018-05-10T08:28:05.851Z,24.40
2018-05-10T08:30:32.758Z,24.40
2018-05-10T08:32:59.007Z,24.40
2018-05-10T08:35:25.191Z,24.60
2018-05-10T08:37:52.108Z,24.70
2018-05-10T08:40:18.303Z,24.70
2018-05-10T08:42:44.540Z,24.90
2018-05-10T08:45:11.541Z,25.00
2018-05-10T08:47:37.746Z,25.00
2018-05-10T08:50:03.986Z,24.80
2018-05-10T08:52:30.176Z,24.90
2018-05-10T08:54:56.340Z,24.80
2018-05-10T08:57:22.717Z,24.90
2018-05-10T08:59:48.992Z,24.90
2018-05-10T09:02:15.138Z,25.00
2018-05-10T09:04:41.391Z,25.00
2018-05-10T09:07:07.552Z,25.10
2018-05-10T09:09:34.466Z,25.10
2018-05-10T09:12:00.797Z,25.00
2018-05-10T09:14:26.963Z,25.10
2018-05-10T09:16:53.200Z,25.10
2018-05-10T09:19:19.376Z,25.10
2018-05-10T09:21:46.797Z,25.10
2018-05-10T09:24:12.941Z,25.10
2018-05-10T09:26:39.105Z,25.10
2018-05-10T09:29:05.321Z,25.20
2018-05-10T09:31:31.666Z,25.20
2018-05-10T09:33:57.837Z,25.00
2018-05-10T09:36:23.998Z,25.10
2018-05-10T09:38:50.207Z,25.10
2018-05-10T09:41:16.386Z,25.10
2018-05-10T09:43:42.548Z,25.30
2018-05-10T09:46:08.833Z,25.30
2018-05-10T09:48:35.004Z,25.30
2018-05-10T09:51:01.268Z,25.30
2018-05-10T09:53:27.425Z,25.30
2018-05-10T09:55:53.626Z,25.40
2018-05-10T09:58:19.781Z,25.60
2018-05-10T10:00:45.967Z,25.70
2018-05-10T10:03:12.907Z,25.70
2018-05-10T10:05:39.149Z,25.70
2018-05-10T10:08:05.360Z,25.80
2018-05-10T10:10:31.552Z,25.70
2018-05-10T10:12:57.726Z,25.70
2018-05-10T10:15:23.953Z,25.80
2018-05-10T10:17:50.231Z,25.80
2018-05-10T10:20:16.618Z,26.00
2018-05-10T10:22:43.652Z,26.20
2018-05-10T10:25:09.954Z,26.10
2018-05-10T10:27:37.166Z,26.30
2018-05-10T10:30:03.472Z,26.30
2018-05-10T10:32:29.735Z,26.30
2018-05-10T10:34:56.002Z,26.10
2018-05-10T10:37:22.313Z,26.00
2018-05-10T10:39:48.619Z,26.10
2018-05-10T10:42:14.945Z,26.40
2018-05-10T10:44:41.237Z,26.50
2018-05-10T10:47:07.482Z,26.70
2018-05-10T10:49:34.846Z,26.70
2018-05-10T10:52:01.156Z,26.70
2018-05-10T10:54:27.495Z,26.90
2018-05-10T10:56:53.804Z,26.90
2018-05-10T10:59:20.101Z,26.90
2018-05-10T11:01:46.393Z,26.90
2018-05-10T11:04:12.633Z,27.00
2018-05-10T11:06:39.724Z,27.00
2018-05-10T11:09:05.991Z,26.90
2018-05-10T11:11:32.248Z,26.70
2018-05-10T11:13:59.526Z,26.50
2018-05-10T11:16:25.820Z,26.20
2018-05-10T11:18:52.081Z,25.80
2018-05-10T11:21:18.313Z,25.60
2018-05-10T11:23:44.655Z,25.40
2018-05-10T11:26:10.912Z,25.30
2018-05-10T11:28:37.296Z,25.30
2018-05-10T11:31:04.435Z,25.20
2018-05-10T11:33:30.737Z,25.20
2018-05-10T11:35:57.004Z,25.30
2018-05-10T11:38:23.330Z,25.20
2018-05-10T11:40:49.653Z,25.10
2018-05-10T11:43:16.046Z,25.00
2018-05-10T11:45:42.324Z,24.60
2018-05-10T11:48:09.319Z,23.50
2018-05-10T11:50:35.607Z,23.50
2018-05-10T11:53:01.897Z,23.20
2018-05-10T11:55:28.143Z,22.90
2018-05-10T11:57:54.393Z,22.60
2018-05-10T12:00:20.690Z,22.40
2018-05-10T12:02:46.942Z,22.20
2018-05-10T12:05:13.231Z,22.10
2018-05-10T12:07:39.704Z,22.00
2018-05-10T12:10:05.991Z,21.90
2018-05-10T12:12:32.184Z,21.80
2018-05-10T12:14:58.427Z,21.60
2018-05-10T12:17:24.700Z,21.60
2018-05-10T12:19:51.758Z,21.60
2018-05-10T12:22:18.029Z,21.50
2018-05-10T12:24:44.461Z,21.50
2018-05-10T12:27:10.747Z,21.40
2018-05-10T12:29:37.027Z,21.40
2018-05-10T12:32:04.060Z,21.40
2018-05-10T12:34:30.309Z,21.30
2018-05-10T12:36:56.576Z,21.20
2018-05-10T12:39:23.564Z,20.80
2018-05-10T12:41:49.862Z,20.80
2018-05-10T12:44:16.267Z,20.70
2018-05-10T12:46:42.511Z,20.50
2018-05-10T12:49:13.978Z,20.40
2018-05-10T12:51:45.805Z,20.30
2018-05-10T12:54:12.061Z,20.30
2018-05-10T12:56:38.320Z,20.20
2018-05-10T12:59:04.652Z,20.10
2018-05-10T13:01:33.702Z,19.80
2018-05-10T13:03:59.911Z,19.80
2018-05-10T13:06:26.153Z,19.70
2018-05-10T13:08:53.131Z,19.70
2018-05-10T13:11:20.269Z,19.70
2018-05-10T13:13:46.558Z,19.70
2018-05-10T13:16:12.893Z,19.60
2018-05-10T13:18:39.232Z,19.70
2018-05-10T13:21:05.511Z,19.80
2018-05-10T13:23:32.460Z,19.90
2018-05-10T13:25:59.475Z,20.10
2018-05-10T13:28:25.730Z,20.10
2018-05-10T13:30:51.952Z,20.30
2018-05-10T13:33:18.248Z,20.40
2018-05-10T13:35:45.324Z,20.50
2018-05-10T13:38:11.601Z,20.50
2018-05-10T13:40:38.247Z,20.70
2018-05-10T13:43:04.540Z,20.70
2018-05-10T13:45:30.870Z,20.90
2018-05-10T13:47:57.130Z,21.00
2018-05-10T13:50:23.380Z,21.10
2018-05-10T13:52:49.652Z,21.10
2018-05-10T13:55:15.957Z,21.20
2018-05-10T13:57:43.007Z,21.40
2018-05-10T14:00:10.123Z,21.50
2018-05-10T14:02:36.449Z,21.40
2018-05-10T14:05:02.814Z,21.40
2018-05-10T14:07:29.098Z,21.40
2018-05-10T14:09:56.251Z,21.20
2018-05-10T14:12:23.264Z,21.10
2018-05-10T14:14:49.651Z,21.10
2018-05-10T14:17:16.772Z,21.10
2018-05-10T14:19:43.144Z,21.00
2018-05-10T14:22:09.488Z,21.10
2018-05-10T14:24:35.632Z,21.00
2018-05-10T14:27:01.930Z,20.60
2018-05-10T14:29:28.235Z,20.40
2018-05-10T14:31:55.249Z,20.10
2018-05-10T14:34:21.647Z,20.00
2018-05-10T14:36:48.659Z,19.80
2018-05-10T14:39:15.060Z,19.80
2018-05-10T14:41:41.342Z,19.80
2018-05-10T14:44:07.603Z,19.70
2018-05-10T14:46:33.899Z,19.70
2018-05-10T14:49:00.306Z,19.60
2018-05-10T14:51:26.571Z,19.50
2018-05-10T14:53:53.014Z,19.70
2018-05-10T14:56:20.105Z,19.90
2018-05-10T14:58:46.452Z,19.90
2018-05-10T15:01:12.748Z,19.80
2018-05-10T15:03:39.034Z,19.80
2018-05-10T15:06:05.372Z,19.80
2018-05-10T15:08:31.613Z,19.70
2018-05-10T15:10:57.964Z,19.60
2018-05-10T15:13:24.223Z,19.60
2018-05-10T15:15:50.530Z,19.50
2018-05-10T15:18:16.804Z,19.40
2018-05-10T15:20:43.150Z,19.30
2018-05-10T15:23:09.438Z,19.20
2018-05-10T15:25:35.739Z,19.10
2018-05-10T15:28:02.068Z,19.10
2018-05-10T15:30:28.277Z,19.10
2018-05-10T15:32:54.592Z,18.90
2018-05-10T15:35:21.712Z,18.90
2018-05-10T15:37:48.032Z,18.90
2018-05-10T15:40:14.302Z,18.90
2018-05-10T15:42:41.453Z,18.70
2018-05-10T15:45:07.716Z,18.70
2018-05-10T15:47:34.028Z,18.60
2018-05-10T15:50:00.394Z,18.40
2018-05-10T15:52:26.734Z,18.20
2018-05-10T15:54:53.028Z,18.20
2018-05-10T15:57:20.115Z,17.90
2018-05-10T15:59:46.368Z,17.90
2018-05-10T16:02:12.726Z,17.80
2018-05-10T16:04:38.988Z,17.90
2018-05-10T16:07:05.252Z,17.80
2018-05-10T16:09:31.510Z,17.70
2018-05-10T16:11:57.830Z,17.80
2018-05-10T16:14:24.227Z,17.70
2018-05-10T16:16:50.456Z,17.60
2018-05-10T16:19:16.724Z,17.60
2018-05-10T16:21:42.932Z,17.60
2018-05-10T16:24:09.191Z,17.50
2018-05-10T16:26:35.533Z,17.50
2018-05-10T16:29:01.823Z,17.50
2018-05-10T16:31:28.870Z,17.30
2018-05-10T16:33:55.124Z,17.20
2018-05-10T16:36:22.114Z,17.00
2018-05-10T16:38:48.410Z,17.00
2018-05-10T16:41:14.683Z,16.80
2018-05-10T16:43:41.014Z,16.70
2018-05-10T16:46:07.354Z,16.60
2018-05-10T16:48:33.598Z,16.50
2018-05-10T16:50:59.846Z,16.30
2018-05-10T16:53:26.137Z,16.20
2018-05-10T16:55:53.106Z,15.90
2018-05-10T16:58:19.606Z,15.90
2018-05-10T17:00:45.937Z,15.80
2018-05-10T17:03:12.240Z,15.80
2018-05-10T17:05:38.761Z,15.70
2018-05-10T17:08:05.030Z,15.70
2018-05-10T17:10:31.325Z,15.70
2018-05-10T17:12:57.541Z,15.80
2018-05-10T17:15:23.885Z,15.80
2018-05-10T17:17:50.130Z,15.90
2018-05-10T17:20:16.742Z,15.90
2018-05-10T17:22:42.990Z,15.90
2018-05-10T17:25:09.303Z,15.90
2018-05-10T17:27:35.649Z,16.10
2018-05-10T17:30:01.889Z,16.10
2018-05-10T17:32:28.131Z,16.20
2018-05-10T17:34:54.408Z,16.20
2018-05-10T17:37:20.723Z,16.10
2018-05-10T17:39:47.084Z,16.10
2018-05-10T17:42:13.365Z,16.00
2018-05-10T17:44:40.371Z,16.10
2018-05-10T17:47:06.738Z,16.10
2018-05-10T17:49:33.005Z,16.10
2018-05-10T17:52:00.039Z,15.90
2018-05-10T17:54:27.583Z,15.90
2018-05-10T17:56:53.890Z,15.80
2018-05-10T17:59:20.207Z,15.80
2018-05-10T18:01:46.523Z,15.80
2018-05-10T18:04:12.772Z,15.80
2018-05-10T18:06:41.198Z,15.90
2018-05-10T18:09:08.587Z,15.80
2018-05-10T18:11:34.787Z,15.80
2018-05-10T18:14:01.254Z,15.70
2018-05-10T18:16:27.721Z,15.60
2018-05-10T18:18:54.135Z,15.60
2018-05-10T18:21:20.559Z,15.60
2018-05-10T18:23:46.915Z,15.60
2018-05-10T18:26:13.185Z,15.70
2018-05-10T18:28:39.619Z,15.70
2018-05-10T18:31:06.116Z,15.70
2018-05-10T18:33:32.436Z,15.60
2018-05-10T18:35:59.080Z,15.60
2018-05-10T18:38:25.380Z,15.60
2018-05-10T18:40:51.773Z,15.50
2018-05-10T18:43:18.746Z,15.20
2018-05-10T18:45:45.116Z,15.20
2018-05-10T18:48:11.394Z,15.10
2018-05-10T18:50:37.796Z,15.00
2018-05-10T18:53:04.254Z,15.00
2018-05-10T18:55:30.675Z,14.90
2018-05-10T18:57:57.912Z,15.00
2018-05-10T19:00:24.212Z,14.90
2018-05-10T19:02:50.511Z,14.90
2018-05-10T19:05:16.900Z,14.80
2018-05-10T19:07:43.181Z,14.80
2018-05-10T19:10:09.566Z,14.80
2018-05-10T19:12:35.914Z,15.00
2018-05-10T19:15:02.191Z,15.00
2018-05-10T19:17:28.495Z,15.10
2018-05-10T19:19:54.959Z,15.20
2018-05-10T19:22:21.249Z,15.30
2018-05-10T19:24:47.575Z,15.30
2018-05-10T19:27:14.727Z,15.30
2018-05-10T19:29:40.956Z,15.20
2018-05-10T19:32:07.466Z,15.30
2018-05-10T19:34:33.773Z,15.30
2018-05-10T19:37:00.806Z,15.20
2018-05-10T19:39:27.060Z,15.20
2018-05-10T19:41:53.390Z,15.20
2018-05-10T19:44:19.708Z,15.10
2018-05-10T19:46:46.056Z,15.10
2018-05-10T19:49:13.365Z,15.20
2018-05-10T19:51:39.676Z,15.30
2018-05-10T19:54:06.115Z,15.40
2018-05-10T19:56:33.174Z,15.50
2018-05-10T19:58:59.520Z,15.50
2018-05-10T20:01:25.774Z,15.40
2018-05-10T20:03:52.054Z,15.40
2018-05-10T20:06:18.311Z,15.60
2018-05-10T20:08:44.839Z,15.70
2018-05-10T20:11:11.266Z,15.60
2018-05-10T20:13:37.576Z,15.60
2018-05-10T20:16:03.822Z,15.60
2018-05-10T20:18:30.197Z,15.50
2018-05-10T20:20:57.229Z,15.30
2018-05-10T20:23:23.944Z,15.30
2018-05-10T20:25:50.391Z,15.40
2018-05-10T20:28:19.919Z,15.40
2018-05-10T20:30:48.381Z,15.20
2018-05-10T20:33:14.810Z,15.20
2018-05-10T20:35:41.136Z,15.10
2018-05-10T20:38:07.484Z,15.10
2018-05-10T20:40:34.515Z,15.00
2018-05-10T20:43:01.260Z,15.00
2018-05-10T20:45:28.232Z,15.00
2018-05-10T20:47:57.815Z,14.90
2018-05-10T20:50:24.438Z,14.90
2018-05-10T20:52:51.300Z,14.90
2018-05-10T20:55:17.685Z,14.90
2018-05-10T20:57:44.141Z,14.90
2018-05-10T21:00:10.491Z,14.90
2018-05-10T21:02:36.777Z,14.90
2018-05-10T21:05:03.813Z,14.80
2018-05-10T21:07:30.119Z,14.80
2018-05-10T21:09:56.774Z,14.80
2018-05-10T21:12:41.364Z,14.90
2018-05-10T21:15:07.835Z,14.80
2018-05-10T21:17:41.201Z,14.80
2018-05-10T21:20:07.581Z,14.80
2018-05-10T21:22:37.039Z,14.80
2018-05-10T21:25:03.533Z,14.80
2018-05-10T21:27:29.950Z,14.80
2018-05-10T21:29:56.428Z,14.80
2018-05-10T21:32:22.802Z,14.80
2018-05-10T21:34:50.019Z,14.90
2018-05-10T21:37:16.395Z,14.80
2018-05-10T21:39:42.695Z,14.80
2018-05-10T21:42:09.039Z,14.80
2018-05-10T21:44:35.427Z,14.80
2018-05-10T21:47:01.824Z,14.80
2018-05-10T21:49:40.538Z,14.70
2018-05-10T21:52:07.090Z,14.70
2018-05-10T21:54:33.510Z,14.70
2018-05-10T21:57:00.667Z,14.60
2018-05-10T21:59:27.033Z,14.60
2018-05-10T22:01:54.338Z,14.60
2018-05-10T22:04:20.693Z,14.70
2018-05-10T22:06:47.133Z,14.60
2018-05-10T22:09:13.502Z,14.60
2018-05-10T22:11:39.847Z,14.70
2018-05-10T22:14:06.239Z,14.60
2018-05-10T22:16:32.589Z,14.60
2018-05-10T22:18:58.965Z,14.60
2018-05-10T22:21:25.271Z,14.60
2018-05-10T22:23:51.722Z,14.60
2018-05-10T22:26:18.113Z,14.60
2018-05-10T22:28:44.543Z,14.50
2018-05-10T22:31:11.059Z,14.50
2018-05-10T22:33:37.441Z,14.40
2018-05-10T22:36:03.831Z,14.40
2018-05-10T22:38:30.196Z,14.40
2018-05-10T22:40:56.563Z,14.30
2018-05-10T22:43:22.968Z,14.30
2018-05-10T22:45:49.540Z,14.30
2018-05-10T22:48:15.889Z,14.30
2018-05-10T22:50:42.244Z,14.30
2018-05-10T22:53:08.604Z,14.20
2018-05-10T22:55:35.024Z,14.20
2018-05-10T22:58:01.376Z,14.30
2018-05-10T23:00:27.736Z,14.30
2018-05-10T23:02:54.056Z,14.30
2018-05-10T23:05:20.440Z,14.30
2018-05-10T23:07:47.504Z,14.20
2018-05-10T23:10:14.585Z,14.20
2018-05-10T23:12:40.875Z,14.20
2018-05-10T23:15:07.294Z,14.20
2018-05-10T23:17:33.659Z,14.20
2018-05-10T23:20:00.039Z,14.20
2018-05-10T23:22:26.361Z,14.10
2018-05-10T23:24:52.843Z,14.10
2018-05-10T23:27:19.955Z,14.10
2018-05-10T23:29:46.304Z,14.10
2018-05-10T23:32:12.688Z,14.10
2018-05-10T23:34:39.725Z,14.00
2018-05-10T23:37:06.060Z,14.00
2018-05-10T23:39:32.424Z,13.90
2018-05-10T23:41:59.574Z,13.90
2018-05-10T23:44:25.949Z,13.90
2018-05-10T23:46:52.336Z,13.90
2018-05-10T23:49:18.700Z,13.80
2018-05-10T23:51:45.209Z,13.70
2018-05-10T23:54:11.618Z,13.70
2018-05-10T23:56:38.007Z,13.60
2018-05-10T23:59:04.492Z,13.60
